Time;durP1;ratioP1;P1;durP2;ratioP2;P2;SDS_P1;SDS_P2;PMS_P1;PMS_P2;Temp;Humidity;BMP_temperature;BMP_pressure;BME280_temperature;BME280_humidity;BME280_pressure;Samples;Min_cycle;Max_cycle;Signal;HPM_P1;HPM_P2
2023/08/21 00:00:24;;;;;;;0.20;0.10;;;;;;;;;;5048521;28;20037;-83
2023/08/21 00:02:50;;;;;;;0.20;0.10;;;;;;;;;;5051015;28;20036;-83
2023/08/21 00:05:16;;;;;;;0.20;0.10;;;;;;;;;;5051002;28;20283;-83
2023/08/21 00:07:43;;;;;;;0.20;0.10;;;;;;;;;;5051976;23;20038;-79
2023/08/21 00:10:10;;;;;;;0.20;0.10;;;;;;;;;;5038672;28;20456;-79
2023/08/21 00:12:36;;;;;;;0.20;0.13;;;;;;;;;;5027376;28;20041;-79
2023/08/21 00:15:03;;;;;;;0.20;0.10;;;;;;;;;;5032367;28;20045;-79
2023/08/21 00:17:29;;;;;;;0.20;0.00;;;;;;;;;;5043764;28;20505;-79
2023/08/21 00:19:55;;;;;;;0.20;0.10;;;;;;;;;;5023617;28;20045;-78
2023/08/21 00:22:21;;;;;;;0.20;0.00;;;;;;;;;;5020848;28;20042;-78
2023/08/21 00:24:47;;;;;;;0.20;0.10;;;;;;;;;;5022230;28;20091;-78
2023/08/21 00:27:13;;;;;;;0.20;0.10;;;;;;;;;;5017197;28;20120;-78
2023/08/21 00:29:39;;;;;;;0.20;0.10;;;;;;;;;;5017631;28;20077;-78
2023/08/21 00:32:06;;;;;;;0.20;0.03;;;;;;;;;;5052778;28;20072;-78
2023/08/21 00:34:32;;;;;;;0.20;0.10;;;;;;;;;;5053201;28;20049;-78
2023/08/21 00:36:58;;;;;;;0.20;0.10;;;;;;;;;;5035701;28;20274;-79
2023/08/21 00:39:24;;;;;;;0.20;0.10;;;;;;;;;;5021816;28;20034;-79
2023/08/21 00:41:50;;;;;;;0.20;0.20;;;;;;;;;;5053384;28;20048;-79
2023/08/21 00:44:16;;;;;;;0.20;0.10;;;;;;;;;;5035337;28;20037;-79
2023/08/21 00:46:42;;;;;;;0.20;0.00;;;;;;;;;;5050780;28;20176;-79
2023/08/21 00:49:08;;;;;;;0.20;0.17;;;;;;;;;;5021153;28;20676;-79
2023/08/21 00:51:34;;;;;;;0.20;0.10;;;;;;;;;;5049976;28;20040;-79
2023/08/21 00:54:00;;;;;;;0.20;0.10;;;;;;;;;;5049904;28;20049;-78
2023/08/21 00:56:26;;;;;;;0.20;0.00;;;;;;;;;;5027068;28;20064;-78
2023/08/21 00:58:52;;;;;;;0.20;0.10;;;;;;;;;;5009850;28;20029;-78
2023/08/21 01:01:19;;;;;;;0.20;0.10;;;;;;;;;;5017825;28;20118;-78
2023/08/21 01:03:45;;;;;;;0.20;0.10;;;;;;;;;;5012321;28;20520;-78
2023/08/21 01:06:11;;;;;;;0.20;0.10;;;;;;;;;;5009553;28;20571;-78
2023/08/21 01:08:37;;;;;;;0.75;0.20;;;;;;;;;;5019372;28;20045;-78
2023/08/21 01:11:07;;;;;;;0.20;0.08;;;;;;;;;;5021079;28;20038;-79
2023/08/21 01:13:52;;;;;;;0.30;0.25;;;;;;;;;;5055913;28;20053;-78
2023/08/21 01:16:18;;;;;;;0.20;0.10;;;;;;;;;;5018662;28;20042;-78
2023/08/21 01:18:45;;;;;;;0.20;0.00;;;;;;;;;;5008042;28;20076;-79
2023/08/21 01:21:11;;;;;;;0.20;0.10;;;;;;;;;;5047505;28;20494;-78
2023/08/21 01:23:38;;;;;;;0.20;0.10;;;;;;;;;;5024541;28;20044;-78
2023/08/21 01:26:05;;;;;;;0.20;0.10;;;;;;;;;;5020081;28;20088;-78
2023/08/21 01:28:33;;;;;;;0.20;0.10;;;;;;;;;;5022520;28;20138;-78
2023/08/21 01:31:05;;;;;;;0.20;0.10;;;;;;;;;;5020229;28;20052;-78
2023/08/21 01:33:31;;;;;;;;;;;;;;;;;;5021529;28;20115;-78
2023/08/21 01:35:59;;;;;;;0.20;0.10;;;;;;;;;;5021326;28;19986;-78
2023/08/21 01:38:25;;;;;;;0.20;0.03;;;;;;;;;;5018778;28;20449;-79
2023/08/21 01:40:51;;;;;;;0.20;0.00;;;;;;;;;;5026230;28;20033;-79
2023/08/21 01:43:18;;;;;;;0.20;0.00;;;;;;;;;;5019249;28;20128;-79
2023/08/21 01:45:44;;;;;;;0.20;0.10;;;;;;;;;;5016801;28;20042;-78
2023/08/21 01:48:10;;;;;;;0.20;0.08;;;;;;;;;;5059506;28;20113;-78
2023/08/21 01:50:36;;;;;;;0.20;0.08;;;;;;;;;;5059755;28;20045;-78
2023/08/21 01:53:02;;;;;;;0.20;0.10;;;;;;;;;;5051823;28;20033;-78
2023/08/21 01:55:28;;;;;;;0.20;0.10;;;;;;;;;;5017612;28;20040;-78
2023/08/21 01:57:54;;;;;;;0.20;0.10;;;;;;;;;;5013325;28;20060;-78
2023/08/21 02:00:20;;;;;;;0.20;0.00;;;;;;;;;;5034880;28;20888;-78
2023/08/21 02:02:46;;;;;;;0.20;0.10;;;;;;;;;;5006824;28;20046;-78
2023/08/21 02:05:12;;;;;;;0.20;0.10;;;;;;;;;;5043625;28;20052;-78
2023/08/21 02:07:38;;;;;;;0.20;0.10;;;;;;;;;;5052243;28;20080;-78
2023/08/21 02:10:05;;;;;;;0.20;0.10;;;;;;;;;;5049884;28;20609;-78
2023/08/21 02:12:31;;;;;;;0.20;0.00;;;;;;;;;;5050309;28;20045;-78
2023/08/21 02:14:57;;;;;;;0.20;0.10;;;;;;;;;;5052360;28;20041;-77
2023/08/21 02:17:23;;;;;;;0.30;0.30;;;;;;;;;;5020721;28;20053;-78
2023/08/21 02:19:49;;;;;;;0.20;0.10;;;;;;;;;;5022201;28;20516;-78
2023/08/21 02:22:15;;;;;;;0.20;0.10;;;;;;;;;;5021736;28;20037;-78
2023/08/21 02:24:41;;;;;;;0.20;0.10;;;;;;;;;;5026849;28;20044;-78
2023/08/21 02:27:07;;;;;;;0.20;0.15;;;;;;;;;;5021688;28;20449;-78
2023/08/21 02:29:33;;;;;;;0.20;0.00;;;;;;;;;;5021189;28;20038;-78
2023/08/21 02:31:59;;;;;;;0.20;0.10;;;;;;;;;;5025074;28;20048;-78
2023/08/21 02:34:25;;;;;;;0.20;0.08;;;;;;;;;;5011904;28;20405;-78
2023/08/21 02:36:51;;;;;;;0.20;0.10;;;;;;;;;;5008522;28;20039;-78
2023/08/21 02:39:17;;;;;;;0.20;0.00;;;;;;;;;;5025412;28;20048;-78
2023/08/21 02:41:43;;;;;;;0.20;0.10;;;;;;;;;;5055718;28;20044;-78
2023/08/21 02:44:09;;;;;;;0.20;0.10;;;;;;;;;;5024219;28;20033;-78
2023/08/21 02:46:36;;;;;;;0.20;0.00;;;;;;;;;;5056019;28;20379;-78
2023/08/21 02:49:02;;;;;;;0.20;0.03;;;;;;;;;;5012013;28;20119;-78
2023/08/21 02:51:28;;;;;;;0.20;0.05;;;;;;;;;;5036060;28;20045;-78
2023/08/21 02:53:54;;;;;;;0.20;0.10;;;;;;;;;;5031257;28;20045;-78
2023/08/21 02:56:20;;;;;;;0.20;0.10;;;;;;;;;;5019192;28;20037;-78
2023/08/21 02:58:46;;;;;;;0.20;0.10;;;;;;;;;;5048928;28;20049;-78
2023/08/21 03:01:12;;;;;;;0.20;0.10;;;;;;;;;;5052931;28;20037;-78
2023/08/21 03:03:38;;;;;;;0.20;0.10;;;;;;;;;;5049233;28;20148;-78
2023/08/21 03:06:04;;;;;;;0.20;0.10;;;;;;;;;;5034602;28;20128;-78
2023/08/21 03:08:30;;;;;;;0.38;0.20;;;;;;;;;;5018584;28;20925;-78
2023/08/21 03:10:56;;;;;;;0.20;0.10;;;;;;;;;;5013974;28;20037;-78
2023/08/21 03:13:22;;;;;;;0.20;0.10;;;;;;;;;;5004731;28;20562;-78
2023/08/21 03:15:48;;;;;;;0.20;0.10;;;;;;;;;;4999472;28;20260;-78
2023/08/21 03:18:14;;;;;;;0.20;0.10;;;;;;;;;;5013201;28;20500;-78
2023/08/21 03:20:46;;;;;;;0.20;0.10;;;;;;;;;;5018801;28;22181;-78
2023/08/21 03:23:16;;;;;;;0.20;0.10;;;;;;;;;;5018062;28;20037;-78
2023/08/21 03:25:42;;;;;;;0.20;0.10;;;;;;;;;;5041664;28;20759;-78
2023/08/21 03:28:08;;;;;;;0.20;0.20;;;;;;;;;;5023235;28;20029;-78
2023/08/21 03:30:34;;;;;;;0.20;0.10;;;;;;;;;;5053319;28;20120;-78
2023/08/21 03:33:00;;;;;;;0.20;0.10;;;;;;;;;;4988961;28;20045;-78
2023/08/21 03:35:26;;;;;;;0.20;0.00;;;;;;;;;;5049898;28;20036;-78
2023/08/21 03:37:52;;;;;;;0.20;0.10;;;;;;;;;;5021869;28;20041;-79
2023/08/21 03:40:18;;;;;;;0.20;0.10;;;;;;;;;;5007248;28;20525;-78
2023/08/21 03:42:44;;;;;;;0.20;0.10;;;;;;;;;;5019662;28;20052;-78
2023/08/21 03:45:10;;;;;;;0.20;0.00;;;;;;;;;;5031878;28;20056;-79
2023/08/21 03:47:36;;;;;;;0.20;0.10;;;;;;;;;;5022520;28;20040;-79
2023/08/21 03:50:02;;;;;;;1.38;0.52;;;;;;;;;;5024816;28;20041;-78
2023/08/21 03:52:28;;;;;;;0.20;0.00;;;;;;;;;;5026785;28;20049;-79
2023/08/21 03:54:54;;;;;;;0.20;0.03;;;;;;;;;;5025910;28;20049;-78
2023/08/21 03:57:20;;;;;;;0.20;0.10;;;;;;;;;;5013322;28;20502;-78
2023/08/21 03:59:46;;;;;;;0.20;0.00;;;;;;;;;;5012129;28;20038;-79
2023/08/21 04:02:12;;;;;;;0.20;0.10;;;;;;;;;;5057602;28;20052;-79
2023/08/21 04:04:38;;;;;;;0.20;0.10;;;;;;;;;;5052123;28;20033;-78
2023/08/21 04:07:04;;;;;;;0.20;0.10;;;;;;;;;;5024314;28;20038;-78
2023/08/21 04:09:30;;;;;;;0.20;0.10;;;;;;;;;;5024231;28;20075;-79
2023/08/21 04:11:56;;;;;;;0.20;0.10;;;;;;;;;;5050264;28;20041;-78
2023/08/21 04:14:22;;;;;;;0.20;0.00;;;;;;;;;;5025447;28;20052;-79
2023/08/21 04:16:48;;;;;;;0.20;0.10;;;;;;;;;;5050670;28;20041;-79
2023/08/21 04:19:14;;;;;;;0.20;0.10;;;;;;;;;;5057318;28;20046;-79
2023/08/21 04:21:40;;;;;;;0.30;0.10;;;;;;;;;;5023826;28;20152;-78
2023/08/21 04:24:06;;;;;;;0.20;0.05;;;;;;;;;;5025308;28;20038;-78
2023/08/21 04:26:32;;;;;;;0.20;0.00;;;;;;;;;;5054361;28;20052;-78
2023/08/21 04:28:58;;;;;;;0.20;0.00;;;;;;;;;;5028374;28;20042;-78
2023/08/21 04:31:24;;;;;;;0.20;0.05;;;;;;;;;;5046429;28;20113;-79
2023/08/21 04:33:50;;;;;;;0.20;0.00;;;;;;;;;;5021218;28;20128;-78
2023/08/21 04:36:17;;;;;;;0.20;0.10;;;;;;;;;;5050170;28;20047;-79
2023/08/21 04:38:43;;;;;;;0.20;0.10;;;;;;;;;;5027119;28;20048;-78
2023/08/21 04:41:10;;;;;;;0.20;0.10;;;;;;;;;;5051678;28;20044;-78
2023/08/21 04:43:36;;;;;;;0.20;0.00;;;;;;;;;;5022806;28;20401;-79
2023/08/21 04:46:02;;;;;;;0.20;0.10;;;;;;;;;;5027535;28;20049;-79
2023/08/21 04:48:28;;;;;;;0.20;0.10;;;;;;;;;;5039299;28;20038;-79
2023/08/21 04:50:54;;;;;;;0.20;0.10;;;;;;;;;;5022269;28;20037;-78
2023/08/21 04:53:20;;;;;;;0.20;0.10;;;;;;;;;;5005103;28;20069;-79
2023/08/21 04:55:46;;;;;;;0.20;0.10;;;;;;;;;;5009525;28;20065;-78
2023/08/21 04:58:12;;;;;;;0.20;0.10;;;;;;;;;;5006530;28;21329;-78
2023/08/21 05:00:38;;;;;;;0.35;0.20;;;;;;;;;;5009212;28;20409;-78
2023/08/21 05:03:04;;;;;;;0.20;0.10;;;;;;;;;;5008945;28;20065;-78
2023/08/21 05:05:30;;;;;;;0.20;0.08;;;;;;;;;;5023703;28;20116;-78
2023/08/21 05:07:56;;;;;;;0.20;0.17;;;;;;;;;;5009075;28;20064;-78
2023/08/21 05:10:22;;;;;;;0.20;0.00;;;;;;;;;;5041984;28;20041;-78
2023/08/21 05:12:48;;;;;;;0.20;0.10;;;;;;;;;;5058037;28;20092;-78
2023/08/21 05:15:14;;;;;;;0.20;0.10;;;;;;;;;;5029183;28;20037;-78
2023/08/21 05:17:40;;;;;;;0.20;0.10;;;;;;;;;;5058951;28;20041;-78
2023/08/21 05:20:07;;;;;;;0.20;0.00;;;;;;;;;;5026276;28;20083;-78
2023/08/21 05:22:33;;;;;;;0.20;0.10;;;;;;;;;;5022183;28;20045;-79
2023/08/21 05:24:59;;;;;;;0.20;0.10;;;;;;;;;;5012908;28;20067;-79
2023/08/21 05:27:25;;;;;;;0.20;0.08;;;;;;;;;;5025952;28;20080;-78
2023/08/21 05:29:51;;;;;;;0.20;0.10;;;;;;;;;;5024990;28;20053;-79
2023/08/21 05:32:17;;;;;;;0.20;0.10;;;;;;;;;;5021169;28;20064;-79
2023/08/21 05:34:44;;;;;;;0.65;0.38;;;;;;;;;;5044614;28;20049;-78
2023/08/21 05:37:10;;;;;;;0.20;0.10;;;;;;;;;;5042853;28;20093;-78
2023/08/21 05:39:36;;;;;;;0.20;0.10;;;;;;;;;;5002109;28;20250;-79
2023/08/21 05:42:02;;;;;;;0.20;0.00;;;;;;;;;;5056291;28;20056;-77
2023/08/21 05:44:28;;;;;;;0.20;0.10;;;;;;;;;;5026792;28;20198;-78
2023/08/21 05:46:54;;;;;;;0.20;0.00;;;;;;;;;;5024044;28;20395;-78
2023/08/21 05:49:21;;;;;;;0.20;0.10;;;;;;;;;;5019574;28;20049;-79
2023/08/21 05:51:46;;;;;;;0.30;0.05;;;;;;;;;;5028464;28;20041;-79
2023/08/21 05:54:13;;;;;;;0.20;0.10;;;;;;;;;;5029464;28;20458;-79
2023/08/21 05:56:39;;;;;;;0.20;0.00;;;;;;;;;;5056017;28;20545;-79
2023/08/21 05:59:05;;;;;;;0.20;0.03;;;;;;;;;;5011970;28;20057;-78
2023/08/21 06:01:31;;;;;;;0.20;0.10;;;;;;;;;;5021381;28;20044;-79
2023/08/21 06:03:58;;;;;;;0.20;0.10;;;;;;;;;;5054755;28;20044;-79
2023/08/21 06:06:24;;;;;;;0.20;0.08;;;;;;;;;;5022524;28;20069;-79
2023/08/21 06:25:19;;;;;;;0.20;0.10;;;;;;;;;;5036417;28;20056;-85
2023/08/21 06:28:11;;;;;;;0.20;0.05;;;;;;;;;;5012286;28;20401;-84
2023/08/21 06:31:22;;;;;;;0.20;0.10;;;;;;;;;;5007437;28;20099;-85
2023/08/21 06:34:21;;;;;;;0.20;0.10;;;;;;;;;;5011862;28;20036;-85
2023/08/21 06:37:41;;;;;;;;;;;;;;;;;;;;;
2023/08/21 06:40:56;;;;;;;0.20;0.00;;;;;;;;;;5016310;28;20049;-84
2023/08/21 06:43:57;;;;;;;0.25;0.20;;;;;;;;;;5031804;28;20120;-84
2023/08/21 06:49:52;;;;;;;0.20;0.00;;;;;;;;;;5098353;23;20051;-85
2023/08/21 06:59:21;;;;;;;0.20;0.10;;;;;;;;;;4929964;29;20054;-84
2023/08/21 07:02:16;;;;;;;0.20;0.10;;;;;;;;;;4976609;28;20200;-84
2023/08/21 07:05:03;;;;;;;0.20;0.05;;;;;;;;;;5025889;28;20515;-85
2023/08/21 07:07:39;;;;;;;0.20;0.10;;;;;;;;;;5022676;28;20437;-84
2023/08/21 07:10:49;;;;;;;0.20;0.00;;;;;;;;;;5019809;28;20040;-84
2023/08/21 07:13:34;;;;;;;;;;;;;;;;;;;;;
2023/08/21 07:16:38;;;;;;;0.20;0.00;;;;;;;;;;5034243;28;20052;-84
2023/08/21 07:19:07;;;;;;;0.20;0.00;;;;;;;;;;5019209;28;20051;-84
2023/08/21 07:21:41;;;;;;;0.20;0.10;;;;;;;;;;5023207;28;20056;-85
2023/08/21 07:27:59;;;;;;;;;;;;;;;;;;;;;
2023/08/21 07:30:39;;;;;;;;;;;;;;;;;;;;;
2023/08/21 07:33:31;;;;;;;0.20;0.10;;;;;;;;;;5040692;28;20040;-84
2023/08/21 07:36:18;;;;;;;0.20;0.10;;;;;;;;;;5049403;28;20127;-84
2023/08/21 07:38:47;;;;;;;0.20;0.10;;;;;;;;;;5030480;28;20041;-84
2023/08/21 07:41:14;;;;;;;0.20;0.10;;;;;;;;;;5021555;28;20193;-83
2023/08/21 07:43:52;;;;;;;0.25;0.20;;;;;;;;;;5019811;28;20075;-84
2023/08/21 07:46:28;;;;;;;0.20;0.10;;;;;;;;;;5028287;28;20087;-83
2023/08/21 07:49:00;;;;;;;0.20;0.10;;;;;;;;;;5022551;28;20221;-84
2023/08/21 07:51:33;;;;;;;0.20;0.10;;;;;;;;;;5027931;28;20044;-84
2023/08/21 07:53:59;;;;;;;0.20;0.10;;;;;;;;;;5021208;28;20056;-85
2023/08/21 07:56:35;;;;;;;0.20;0.10;;;;;;;;;;5030989;28;20120;-84
2023/08/21 07:59:04;;;;;;;0.20;0.10;;;;;;;;;;5033109;28;20045;-84
2023/08/21 08:02:00;;;;;;;0.20;0.10;;;;;;;;;;5025368;28;20123;-84
2023/08/21 08:04:43;;;;;;;0.20;0.10;;;;;;;;;;5007524;28;20046;-84
2023/08/21 08:07:09;;;;;;;0.20;0.10;;;;;;;;;;5025215;28;20066;-83
2023/08/21 08:09:46;;;;;;;;;;;;;;;;;;;;;
2023/08/21 08:12:37;;;;;;;0.20;0.10;;;;;;;;;;5049485;28;20057;-84
2023/08/21 08:15:11;;;;;;;0.20;0.10;;;;;;;;;;5020091;28;20040;-83
2023/08/21 08:17:42;;;;;;;0.20;0.10;;;;;;;;;;5033530;28;20122;-83
2023/08/21 08:20:12;;;;;;;0.20;0.10;;;;;;;;;;5033701;28;20336;-83
2023/08/21 08:23:02;;;;;;;0.50;0.28;;;;;;;;;;5033241;28;20288;-84
2023/08/21 08:25:41;;;;;;;0.20;0.05;;;;;;;;;;5037271;28;20048;-83
2023/08/21 08:28:07;;;;;;;0.20;0.10;;;;;;;;;;5020218;28;20097;-83
2023/08/21 08:30:41;;;;;;;0.20;0.00;;;;;;;;;;5025122;28;20045;-83
2023/08/21 08:33:23;;;;;;;0.20;0.10;;;;;;;;;;5024374;28;20045;-82
2023/08/21 08:35:54;;;;;;;0.20;0.10;;;;;;;;;;5039734;28;20070;-83
2023/08/21 08:38:20;;;;;;;0.20;0.10;;;;;;;;;;5041908;28;20040;-83
2023/08/21 08:40:56;;;;;;;0.20;0.10;;;;;;;;;;5045675;28;20044;-83
2023/08/21 08:43:25;;;;;;;0.20;0.10;;;;;;;;;;5032120;28;20037;-83
2023/08/21 08:46:02;;;;;;;0.20;0.10;;;;;;;;;;5044960;28;20047;-83
2023/08/21 08:48:31;;;;;;;0.20;0.10;;;;;;;;;;5039916;28;20674;-84
2023/08/21 08:51:17;;;;;;;0.20;0.10;;;;;;;;;;5036192;28;20037;-84
2023/08/21 08:53:44;;;;;;;0.20;0.10;;;;;;;;;;5036852;28;20144;-83
2023/08/21 08:56:33;;;;;;;0.20;0.05;;;;;;;;;;5037448;28;20508;-84
2023/08/21 08:58:59;;;;;;;0.20;0.00;;;;;;;;;;5031518;28;20168;-84
2023/08/21 09:01:29;;;;;;;0.20;0.10;;;;;;;;;;5045045;28;20128;-84
2023/08/21 09:04:10;;;;;;;0.20;0.13;;;;;;;;;;5031548;28;20116;-84
2023/08/21 09:06:43;;;;;;;0.20;0.00;;;;;;;;;;5039858;28;20093;-83
2023/08/21 09:09:33;;;;;;;;;;;;;;;;;;;;;
2023/08/21 09:12:13;;;;;;;0.85;0.57;;;;;;;;;;5045174;28;20049;-85
2023/08/21 09:14:54;;;;;;;0.20;0.00;;;;;;;;;;5029753;28;20036;-84
2023/08/21 09:17:32;;;;;;;0.20;0.10;;;;;;;;;;5022276;28;20587;-83
2023/08/21 09:20:08;;;;;;;0.20;0.10;;;;;;;;;;5026094;28;20037;-84
2023/08/21 09:22:34;;;;;;;0.20;0.00;;;;;;;;;;5027936;28;20049;-83
2023/08/21 09:25:08;;;;;;;0.20;0.03;;;;;;;;;;5024421;28;20660;-83
2023/08/21 09:27:35;;;;;;;0.20;0.00;;;;;;;;;;5031264;28;20078;-82
2023/08/21 09:30:04;;;;;;;0.20;0.10;;;;;;;;;;5039691;28;20037;-83
2023/08/21 09:32:30;;;;;;;0.20;0.10;;;;;;;;;;5026414;28;20051;-85
2023/08/21 09:34:56;;;;;;;0.20;0.10;;;;;;;;;;5025053;28;20033;-84
2023/08/21 09:37:29;;;;;;;0.20;0.10;;;;;;;;;;5038815;28;20040;-82
2023/08/21 09:39:55;;;;;;;;;;;;;;;;;;5025937;28;20044;-84
2023/08/21 09:42:23;;;;;;;0.32;0.10;;;;;;;;;;5027894;28;19920;-84
2023/08/21 09:44:52;;;;;;;0.20;0.00;;;;;;;;;;5026398;28;20032;-83
2023/08/21 09:47:19;;;;;;;0.20;0.10;;;;;;;;;;5034368;28;20624;-82
2023/08/21 09:49:45;;;;;;;0.20;0.05;;;;;;;;;;5042013;28;20048;-82
2023/08/21 09:52:12;;;;;;;0.20;0.00;;;;;;;;;;5054028;28;20087;-81
2023/08/21 09:54:41;;;;;;;0.20;0.10;;;;;;;;;;5026474;28;20044;-83
2023/08/21 09:57:08;;;;;;;0.20;0.10;;;;;;;;;;5024053;28;20592;-84
2023/08/21 09:59:34;;;;;;;0.20;0.00;;;;;;;;;;5025594;28;20502;-82
2023/08/21 10:02:00;;;;;;;0.20;0.10;;;;;;;;;;5022492;28;20082;-84
2023/08/21 10:04:30;;;;;;;0.20;0.10;;;;;;;;;;5039207;28;20033;-84
2023/08/21 10:06:57;;;;;;;0.20;0.00;;;;;;;;;;5026464;28;20043;-82
2023/08/21 10:09:27;;;;;;;0.20;0.00;;;;;;;;;;5025365;28;20586;-83
2023/08/21 10:12:11;;;;;;;0.20;0.10;;;;;;;;;;5037093;28;20052;-82
2023/08/21 10:14:38;;;;;;;0.20;0.10;;;;;;;;;;5039992;28;20052;-81
2023/08/21 10:17:24;;;;;;;0.20;0.10;;;;;;;;;;5025885;28;20443;-84
2023/08/21 10:20:05;;;;;;;0.20;0.10;;;;;;;;;;5022894;28;20041;-82
2023/08/21 10:22:47;;;;;;;0.20;0.00;;;;;;;;;;5040308;28;20041;-84
2023/08/21 10:25:17;;;;;;;0.20;0.10;;;;;;;;;;5021090;28;20095;-82
2023/08/21 10:27:47;;;;;;;0.20;0.10;;;;;;;;;;5034384;28;20041;-83
2023/08/21 10:30:20;;;;;;;0.20;0.10;;;;;;;;;;5036378;28;20461;-83
2023/08/21 10:33:19;;;;;;;0.20;0.05;;;;;;;;;;5022438;28;20088;-84
2023/08/21 10:35:45;;;;;;;0.20;0.10;;;;;;;;;;5020573;28;20535;-81
2023/08/21 10:38:17;;;;;;;0.20;0.10;;;;;;;;;;5025484;28;20036;-82
2023/08/21 10:41:02;;;;;;;0.20;0.10;;;;;;;;;;5021580;28;20046;-84
2023/08/21 10:43:45;;;;;;;0.20;0.10;;;;;;;;;;5022243;28;20124;-83
2023/08/21 10:46:11;;;;;;;;;;;;;;;;;;5036410;28;20037;-83
2023/08/21 10:48:37;;;;;;;0.20;0.10;;;;;;;;;;5023821;28;21103;-81
2023/08/21 10:51:04;;;;;;;0.20;0.10;;;;;;;;;;5034680;28;20052;-82
2023/08/21 10:53:31;;;;;;;0.20;0.10;;;;;;;;;;5032398;28;20049;-85
2023/08/21 10:56:06;;;;;;;0.20;0.10;;;;;;;;;;5021272;28;20041;-82
2023/08/21 10:58:39;;;;;;;0.20;0.10;;;;;;;;;;5021260;28;20040;-83
2023/08/21 11:01:15;;;;;;;0.20;0.00;;;;;;;;;;5026242;28;20035;-83
2023/08/21 11:04:08;;;;;;;0.20;0.10;;;;;;;;;;5020046;28;20402;-83
2023/08/21 11:06:34;;;;;;;0.20;0.00;;;;;;;;;;5027411;28;20036;-83
2023/08/21 11:09:03;;;;;;;0.20;0.00;;;;;;;;;;5032413;28;20074;-82
2023/08/21 11:11:30;;;;;;;0.20;0.10;;;;;;;;;;5035589;28;20098;-83
2023/08/21 11:13:56;;;;;;;0.20;0.10;;;;;;;;;;5020134;28;20037;-81
2023/08/21 11:16:22;;;;;;;0.20;0.10;;;;;;;;;;5032225;28;20044;-83
2023/08/21 11:18:48;;;;;;;0.30;0.20;;;;;;;;;;5033893;28;20544;-83
2023/08/21 11:21:14;;;;;;;0.20;0.10;;;;;;;;;;5031534;28;20551;-84
2023/08/21 11:23:41;;;;;;;0.20;0.10;;;;;;;;;;5018393;28;20043;-82
2023/08/21 11:26:07;;;;;;;0.20;0.10;;;;;;;;;;5031808;28;20049;-83
2023/08/21 11:28:33;;;;;;;0.20;0.10;;;;;;;;;;5033161;28;20082;-82
2023/08/21 11:31:00;;;;;;;0.20;0.10;;;;;;;;;;5035162;28;20375;-84
2023/08/21 11:33:27;;;;;;;0.20;0.15;;;;;;;;;;5019747;28;20584;-84
2023/08/21 11:35:53;;;;;;;0.20;0.10;;;;;;;;;;5018067;28;20045;-84
2023/08/21 11:38:24;;;;;;;0.20;0.10;;;;;;;;;;5022144;28;20072;-83
2023/08/21 11:41:00;;;;;;;0.20;0.10;;;;;;;;;;5034363;28;20040;-83
2023/08/21 11:43:36;;;;;;;0.20;0.10;;;;;;;;;;5032796;28;20131;-81
2023/08/21 11:46:03;;;;;;;0.28;0.17;;;;;;;;;;5024329;28;20505;-82
2023/08/21 11:48:30;;;;;;;0.20;0.10;;;;;;;;;;5031799;28;20085;-83
2023/08/21 11:50:56;;;;;;;0.20;0.10;;;;;;;;;;5023222;28;20459;-81
2023/08/21 11:53:32;;;;;;;0.20;0.00;;;;;;;;;;5017735;28;20500;-86
2023/08/21 11:55:59;;;;;;;0.20;0.10;;;;;;;;;;5020804;28;20049;-84
2023/08/21 11:58:27;;;;;;;0.20;0.10;;;;;;;;;;5019738;28;20135;-83
2023/08/21 12:00:53;;;;;;;0.30;0.13;;;;;;;;;;5023505;28;20280;-83
2023/08/21 12:03:19;;;;;;;0.20;0.10;;;;;;;;;;5023281;28;20037;-84
2023/08/21 12:05:45;;;;;;;0.20;0.08;;;;;;;;;;5030204;28;20076;-82
2023/08/21 12:08:11;;;;;;;0.20;0.10;;;;;;;;;;5023815;28;20125;-81
2023/08/21 12:10:37;;;;;;;0.20;0.10;;;;;;;;;;5025614;28;20069;-81
2023/08/21 12:13:03;;;;;;;0.20;0.10;;;;;;;;;;5035547;28;20041;-80
2023/08/21 12:15:29;;;;;;;0.20;0.10;;;;;;;;;;5036696;28;20036;-85
2023/08/21 12:18:01;;;;;;;0.20;0.10;;;;;;;;;;5023389;28;20671;-83
2023/08/21 12:20:27;;;;;;;0.20;0.10;;;;;;;;;;5046687;22;20057;-83
2023/08/21 12:22:53;;;;;;;0.45;0.30;;;;;;;;;;5022294;28;20064;-85
2023/08/21 12:25:19;;;;;;;0.20;0.10;;;;;;;;;;5028149;28;20138;-86
2023/08/21 12:27:45;;;;;;;0.20;0.10;;;;;;;;;;5009885;28;20087;-85
2023/08/21 12:30:11;;;;;;;0.20;0.08;;;;;;;;;;5015512;28;20034;-83
2023/08/21 12:32:37;;;;;;;0.20;0.10;;;;;;;;;;5009779;28;20494;-80
2023/08/21 12:35:04;;;;;;;0.20;0.10;;;;;;;;;;5026843;28;20041;-79
2023/08/21 12:37:30;;;;;;;0.20;0.10;;;;;;;;;;5010596;28;20041;-81
2023/08/21 12:39:56;;;;;;;0.20;0.03;;;;;;;;;;5002598;28;20125;-82
2023/08/21 12:42:22;;;;;;;0.20;0.10;;;;;;;;;;5005953;28;20106;-82
2023/08/21 12:44:48;;;;;;;0.20;0.10;;;;;;;;;;5023544;28;20042;-79
2023/08/21 12:47:14;;;;;;;0.20;0.10;;;;;;;;;;5007457;28;20083;-83
2023/08/21 12:49:40;;;;;;;0.20;0.10;;;;;;;;;;5010168;28;20047;-79
2023/08/21 12:52:06;;;;;;;0.20;0.10;;;;;;;;;;5029521;28;20664;-79
2023/08/21 12:54:32;;;;;;;0.20;0.10;;;;;;;;;;5007181;28;20052;-79
2023/08/21 12:56:58;;;;;;;0.20;0.10;;;;;;;;;;5010726;28;20041;-79
2023/08/21 12:59:24;;;;;;;0.20;0.10;;;;;;;;;;5022044;28;20041;-80
2023/08/21 13:01:50;;;;;;;0.20;0.10;;;;;;;;;;5010548;28;20056;-80
2023/08/21 13:04:17;;;;;;;0.22;0.10;;;;;;;;;;5017644;28;20034;-81
2023/08/21 13:06:43;;;;;;;0.20;0.20;;;;;;;;;;5032580;28;20097;-79
2023/08/21 13:09:09;;;;;;;0.20;0.10;;;;;;;;;;5011100;28;20065;-80
2023/08/21 13:11:35;;;;;;;0.20;0.10;;;;;;;;;;5017343;28;20068;-81
2023/08/21 13:14:01;;;;;;;0.20;0.10;;;;;;;;;;5026602;28;20040;-80
2023/08/21 13:16:27;;;;;;;0.20;0.10;;;;;;;;;;5028448;28;20159;-82
2023/08/21 13:18:53;;;;;;;0.20;0.10;;;;;;;;;;5009073;28;20084;-83
2023/08/21 13:21:19;;;;;;;0.20;0.10;;;;;;;;;;5008110;28;20049;-82
2023/08/21 13:23:45;;;;;;;0.20;0.10;;;;;;;;;;4996222;28;20421;-81
2023/08/21 13:26:11;;;;;;;0.20;0.10;;;;;;;;;;5013749;28;20211;-81
2023/08/21 13:28:37;;;;;;;0.20;0.10;;;;;;;;;;4987293;28;20105;-85
2023/08/21 13:31:04;;;;;;;0.20;0.10;;;;;;;;;;5003663;28;20037;-80
2023/08/21 13:33:30;;;;;;;0.32;0.28;;;;;;;;;;5032617;28;20401;-84
2023/08/21 13:35:56;;;;;;;0.20;0.10;;;;;;;;;;5012642;28;20029;-80
2023/08/21 13:38:22;;;;;;;0.20;0.10;;;;;;;;;;5024413;28;20172;-79
2023/08/21 13:40:48;;;;;;;0.20;0.10;;;;;;;;;;5011004;28;20033;-83
2023/08/21 13:43:14;;;;;;;0.20;0.10;;;;;;;;;;5018520;28;20237;-79
2023/08/21 13:45:40;;;;;;;0.20;0.10;;;;;;;;;;5013672;28;20125;-84
2023/08/21 13:48:06;;;;;;;0.20;0.10;;;;;;;;;;4996973;28;20659;-84
2023/08/21 13:50:33;;;;;;;0.20;0.10;;;;;;;;;;5025869;28;20041;-81
2023/08/21 13:52:59;;;;;;;0.20;0.10;;;;;;;;;;5019290;28;20045;-82
2023/08/21 13:55:25;;;;;;;0.20;0.10;;;;;;;;;;5022111;28;20038;-81
2023/08/21 13:57:51;;;;;;;0.20;0.10;;;;;;;;;;5002943;28;20037;-81
2023/08/21 14:00:17;;;;;;;0.20;0.10;;;;;;;;;;4999126;28;20080;-78
2023/08/21 14:02:43;;;;;;;0.20;0.10;;;;;;;;;;5002863;28;20052;-81
2023/08/21 14:05:10;;;;;;;0.20;0.10;;;;;;;;;;5027614;28;20696;-83
2023/08/21 14:07:37;;;;;;;0.20;0.10;;;;;;;;;;5004553;28;20096;-78
2023/08/21 14:10:04;;;;;;;0.20;0.05;;;;;;;;;;5024775;28;20049;-80
2023/08/21 14:12:31;;;;;;;0.20;0.10;;;;;;;;;;5020318;28;20041;-81
2023/08/21 14:14:59;;;;;;;0.20;0.10;;;;;;;;;;5001718;28;20041;-80
2023/08/21 14:17:25;;;;;;;0.20;0.10;;;;;;;;;;5036291;28;20052;-83
2023/08/21 14:19:51;;;;;;;0.20;0.10;;;;;;;;;;5010335;28;20075;-81
2023/08/21 14:22:17;;;;;;;0.20;0.10;;;;;;;;;;5030865;28;20049;-82
2023/08/21 14:24:43;;;;;;;0.55;0.40;;;;;;;;;;5010039;28;20036;-82
2023/08/21 14:27:09;;;;;;;0.20;0.10;;;;;;;;;;5021619;28;20044;-81
2023/08/21 14:29:35;;;;;;;0.20;0.10;;;;;;;;;;5001484;28;20041;-81
2023/08/21 14:32:01;;;;;;;0.20;0.10;;;;;;;;;;5003975;28;20786;-83
2023/08/21 14:34:27;;;;;;;0.20;0.13;;;;;;;;;;5019227;28;20176;-81
2023/08/21 14:36:58;;;;;;;0.20;0.10;;;;;;;;;;5006656;28;20455;-79
2023/08/21 14:39:24;;;;;;;0.20;0.10;;;;;;;;;;5012321;28;20295;-79
2023/08/21 14:41:57;;;;;;;0.20;0.10;;;;;;;;;;5034139;28;20277;-79
2023/08/21 14:44:23;;;;;;;0.32;0.10;;;;;;;;;;5023137;28;20040;-81
2023/08/21 14:46:49;;;;;;;0.28;0.10;;;;;;;;;;5016823;28;20120;-84
2023/08/21 14:49:15;;;;;;;0.20;0.10;;;;;;;;;;5005179;28;20048;-86
2023/08/21 14:51:44;;;;;;;0.20;0.10;;;;;;;;;;5004238;28;20049;-81
2023/08/21 14:54:10;;;;;;;0.20;0.10;;;;;;;;;;5028528;28;20041;-82
2023/08/21 14:56:36;;;;;;;0.20;0.10;;;;;;;;;;5023655;28;20088;-81
2023/08/21 14:59:04;;;;;;;0.20;0.10;;;;;;;;;;5003256;28;20040;-80
2023/08/21 15:01:30;;;;;;;0.20;0.10;;;;;;;;;;5026292;28;20049;-83
2023/08/21 15:03:56;;;;;;;0.20;0.10;;;;;;;;;;5008898;28;20072;-79
2023/08/21 15:06:22;;;;;;;0.28;0.10;;;;;;;;;;5025864;28;20534;-84
2023/08/21 15:08:48;;;;;;;0.20;0.10;;;;;;;;;;5017023;28;20049;-83
2023/08/21 15:11:14;;;;;;;0.20;0.10;;;;;;;;;;5015134;28;20033;-82
2023/08/21 15:13:40;;;;;;;0.20;0.10;;;;;;;;;;5024908;28;20090;-84
2023/08/21 15:16:06;;;;;;;0.20;0.10;;;;;;;;;;5004769;28;20037;-81
2023/08/21 15:18:32;;;;;;;0.22;0.10;;;;;;;;;;5005084;28;20505;-82
2023/08/21 15:20:59;;;;;;;0.20;0.10;;;;;;;;;;5005459;28;20409;-81
2023/08/21 15:23:25;;;;;;;0.20;0.10;;;;;;;;;;5022254;28;20036;-81
2023/08/21 15:25:52;;;;;;;0.20;0.10;;;;;;;;;;5015085;28;20077;-80
2023/08/21 15:28:18;;;;;;;0.20;0.10;;;;;;;;;;5014923;28;20033;-80
2023/08/21 15:30:44;;;;;;;0.20;0.10;;;;;;;;;;5006523;28;20079;-81
2023/08/21 15:33:10;;;;;;;0.20;0.10;;;;;;;;;;5027461;28;20415;-83